Time;durP1;ratioP1;P1;durP2;ratioP2;P2;SDS_P1;SDS_P2;PMS_P1;PMS_P2;Temp;Humidity;BMP_temperature;BMP_pressure;BME280_temperature;BME280_humidity;BME280_pressure;Samples;Min_cycle;Max_cycle;Signal;HPM_P1;HPM_P2
2022/01/10 00:00:42;;;;;;;0.50;0.50;;;;;;;7.95;100.00;100100.28;5013155;28;20029;-78
2022/01/10 00:03:08;;;;;;;0.40;0.40;;;;;;;8.35;100.00;100101.91;5044012;28;20032;-78
2022/01/10 00:05:34;;;;;;;0.40;0.40;;;;;;;8.62;100.00;100109.63;5032774;28;20037;-78
2022/01/10 00:08:02;;;;;;;0.40;0.40;;;;;;;8.82;100.00;100118.03;5045454;28;20471;-78
2022/01/10 00:10:28;;;;;;;0.40;0.40;;;;;;;8.94;100.00;100117.38;5052842;28;20505;-78
2022/01/10 00:12:54;;;;;;;0.40;0.40;;;;;;;9.03;100.00;100119.00;5055622;28;20103;-77
2022/01/10 00:15:20;;;;;;;0.40;0.40;;;;;;;9.12;100.00;100113.56;5044441;28;20040;-77
2022/01/10 00:17:45;;;;;;;0.50;0.50;;;;;;;9.23;100.00;100124.69;5048576;28;20044;-78
2022/01/10 00:20:16;;;;;;;0.35;0.35;;;;;;;9.23;100.00;100119.31;5031019;28;20482;-77
2022/01/10 00:22:45;;;;;;;0.40;0.40;;;;;;;9.29;100.00;100133.00;5048377;28;20398;-77
2022/01/10 00:25:17;;;;;;;0.40;0.40;;;;;;;9.36;100.00;100131.25;5027643;28;20036;-77
2022/01/10 00:27:43;;;;;;;0.40;0.40;;;;;;;9.33;100.00;100123.56;5046832;28;20041;-78
2022/01/10 00:30:10;;;;;;;0.40;0.40;;;;;;;9.36;100.00;100123.22;5056796;28;20390;-79
2022/01/10 00:32:40;;;;;;;0.40;0.40;;;;;;;9.50;100.00;100134.97;5019166;28;20029;-79
2022/01/10 00:35:08;;;;;;;0.40;0.40;;;;;;;9.55;100.00;100135.25;5033486;28;20471;-78
2022/01/10 00:37:34;;;;;;;0.40;0.40;;;;;;;9.50;100.00;100132.28;5046498;28;20048;-78
2022/01/10 00:40:02;;;;;;;0.40;0.40;;;;;;;9.60;100.00;100132.84;5020071;28;20033;-78
2022/01/10 00:42:29;;;;;;;0.47;0.47;;;;;;;9.59;100.00;100136.56;5032343;28;20421;-78
2022/01/10 00:44:55;;;;;;;0.40;0.40;;;;;;;9.62;100.00;100145.06;5032782;28;20025;-78
2022/01/10 00:47:21;;;;;;;0.50;0.50;;;;;;;9.58;100.00;100137.56;5025019;28;20128;-78
2022/01/10 00:49:47;;;;;;;0.30;0.30;;;;;;;9.62;100.00;100137.00;5035447;28;20041;-78
2022/01/10 00:52:13;;;;;;;0.40;0.40;;;;;;;9.68;100.00;100147.03;5014903;28;20392;-78
2022/01/10 00:54:39;;;;;;;0.45;0.45;;;;;;;9.71;100.00;100142.28;5031666;28;20463;-78
2022/01/10 00:57:05;;;;;;;0.40;0.40;;;;;;;9.74;100.00;100149.97;5057322;28;20035;-78
2022/01/10 00:59:31;;;;;;;0.40;0.40;;;;;;;9.77;100.00;100161.19;5054319;28;20025;-78
2022/01/10 01:02:00;;;;;;;0.40;0.40;;;;;;;9.76;100.00;100147.94;5015311;28;20068;-78
2022/01/10 01:04:25;;;;;;;0.40;0.40;;;;;;;9.82;100.00;100157.97;5039176;28;20080;-78
2022/01/10 01:06:51;;;;;;;0.40;0.40;;;;;;;9.82;100.00;100163.31;5024337;28;20458;-77
2022/01/10 01:09:20;;;;;;;0.40;0.40;;;;;;;9.82;100.00;100163.31;5030778;28;20040;-77
2022/01/10 01:14:36;;;;;;;0.40;0.40;;;;;;;9.88;100.00;100166.09;5036616;28;20041;-77
2022/01/10 01:17:24;;;;;;;0.40;0.40;;;;;;;9.91;100.00;100168.41;5029247;28;20055;-78
2022/01/10 01:20:07;;;;;;;0.50;0.50;;;;;;;9.87;100.00;100163.56;5033825;28;20036;-78
2022/01/10 01:25:17;;;;;;;0.50;0.50;;;;;;;9.87;100.00;100177.84;5050831;28;19920;-78
2022/01/10 01:27:44;;;;;;;0.40;0.40;;;;;;;9.87;100.00;100177.00;5049514;28;20361;-77
2022/01/10 01:30:10;;;;;;;0.30;0.30;;;;;;;9.90;100.00;100174.78;5025546;28;20041;-78
2022/01/10 01:32:36;;;;;;;0.40;0.40;;;;;;;9.89;100.00;100173.09;5028439;28;20037;-78
2022/01/10 01:35:06;;;;;;;0.40;0.40;;;;;;;9.93;100.00;100181.66;5044855;28;20032;-78
2022/01/10 01:37:32;;;;;;;0.40;0.40;;;;;;;9.91;100.00;100179.13;5029175;28;20744;-78
2022/01/10 01:39:59;;;;;;;0.45;0.45;;;;;;;9.92;100.00;100179.97;5035183;28;20486;-77
2022/01/10 01:42:34;;;;;;;0.35;0.35;;;;;;;9.94;100.00;100187.84;5014303;28;20512;-79
2022/01/10 01:45:02;;;;;;;0.40;0.40;;;;;;;9.97;100.00;100179.41;5028671;28;20029;-78
2022/01/10 01:47:28;;;;;;;0.40;0.40;;;;;;;9.95;100.00;100186.81;5048354;28;20154;-77
2022/01/10 01:49:56;;;;;;;0.38;0.38;;;;;;;9.98;100.00;100189.16;5027312;28;20123;-77
2022/01/10 01:52:22;;;;;;;0.50;0.50;;;;;;;9.94;100.00;100182.47;5030264;28;20043;-77
2022/01/10 01:54:47;;;;;;;0.40;0.40;;;;;;;10.01;100.00;100196.84;5029835;28;20033;-77
2022/01/10 01:57:13;;;;;;;0.40;0.40;;;;;;;10.01;100.00;100188.78;5045470;28;20037;-78
2022/01/10 01:59:38;;;;;;;0.43;0.43;;;;;;;10.02;100.00;100188.56;5029009;28;20033;-78
2022/01/10 02:02:04;;;;;;;0.40;0.40;;;;;;;9.99;100.00;100188.94;5038435;28;20086;-77
2022/01/10 02:04:30;;;;;;;0.40;0.40;;;;;;;10.04;100.00;100194.59;5031097;28;20021;-77
2022/01/10 02:06:56;;;;;;;0.40;0.40;;;;;;;10.04;100.00;100193.78;5049105;28;20090;-78
2022/01/10 02:09:22;;;;;;;0.50;0.50;;;;;;;10.00;100.00;100187.09;5026221;28;22211;-78
2022/01/10 02:11:47;;;;;;;1.02;1.02;;;;;;;10.02;100.00;100193.13;5042906;28;20501;-78
2022/01/10 02:14:17;;;;;;;0.40;0.40;;;;;;;10.04;100.00;100196.47;5045003;28;22237;-77
2022/01/10 02:16:45;;;;;;;0.40;0.40;;;;;;;10.03;100.00;100192.94;5028143;28;20041;-78
2022/01/10 02:19:12;;;;;;;0.40;0.40;;;;;;;10.06;100.00;100200.63;5026157;28;20354;-77
2022/01/10 02:21:38;;;;;;;0.30;0.30;;;;;;;10.03;100.00;100201.00;5044117;28;20552;-77
2022/01/10 02:24:04;;;;;;;0.40;0.40;;;;;;;10.04;100.00;100207.19;5040735;28;20025;-77
2022/01/10 02:26:31;;;;;;;0.40;0.40;;;;;;;10.05;100.00;100201.63;5052000;28;20069;-78
2022/01/10 02:28:57;;;;;;;0.57;0.57;;;;;;;10.00;100.00;100208.56;5046712;28;20126;-78
2022/01/10 02:31:23;;;;;;;0.40;0.40;;;;;;;10.02;100.00;100218.13;5016972;28;20064;-77
2022/01/10 02:33:51;;;;;;;3.30;0.80;;;;;;;9.99;100.00;100207.75;5039844;28;20033;-77
2022/01/10 02:36:25;;;;;;;0.40;0.40;;;;;;;10.09;100.00;100221.75;5046785;28;20037;-77
2022/01/10 02:39:02;;;;;;;0.40;0.40;;;;;;;10.07;100.00;100215.72;5037467;28;20040;-77
2022/01/10 02:41:36;;;;;;;0.50;0.50;;;;;;;10.08;100.00;100217.41;5032739;28;20032;-78
2022/01/10 02:44:09;;;;;;;1.10;0.40;;;;;;;10.09;100.00;100237.03;5048183;28;20029;-77
2022/01/10 02:46:36;;;;;;;0.40;0.40;;;;;;;9.97;100.00;100209.78;5012895;28;20578;-78
2022/01/10 02:49:14;;;;;;;0.50;0.50;;;;;;;10.04;100.00;100221.47;5039142;28;20364;-77
2022/01/10 02:51:40;;;;;;;0.45;0.45;;;;;;;10.08;100.00;100229.97;5011268;28;20121;-79
2022/01/10 02:54:07;;;;;;;0.50;0.50;;;;;;;10.09;100.00;100234.34;5036451;28;20116;-78
2022/01/10 02:56:44;;;;;;;0.40;0.40;;;;;;;10.11;100.00;100246.56;5042122;28;20036;-77
2022/01/10 02:59:10;;;;;;;0.43;0.43;;;;;;;10.11;100.00;100243.06;5053732;28;20025;-77
2022/01/10 03:01:53;;;;;;;0.43;0.43;;;;;;;10.09;100.00;100245.91;5027747;28;20052;-77
2022/01/10 03:04:21;;;;;;;0.30;0.30;;;;;;;10.10;100.00;100250.25;5059052;28;20028;-79
2022/01/10 03:06:48;;;;;;;0.40;0.40;;;;;;;10.12;100.00;100239.34;5031212;28;20086;-77
2022/01/10 03:09:14;;;;;;;0.40;0.40;;;;;;;10.15;100.00;100240.81;5032474;28;20041;-77
2022/01/10 03:11:42;;;;;;;0.50;0.50;;;;;;;10.17;100.00;100249.53;5036271;28;20114;-78
2022/01/10 03:14:07;;;;;;;0.50;0.50;;;;;;;10.13;100.00;100252.59;5050183;28;20459;-79
2022/01/10 03:16:33;;;;;;;0.50;0.50;;;;;;;10.13;100.00;100251.75;5033471;28;20039;-77
2022/01/10 03:18:59;;;;;;;0.40;0.40;;;;;;;10.07;100.00;100242.56;5062936;28;20094;-79
2022/01/10 03:21:25;;;;;;;0.40;0.40;;;;;;;10.04;100.00;100248.31;5048174;28;20044;-77
2022/01/10 03:23:51;;;;;;;0.40;0.40;;;;;;;10.01;100.00;100237.13;5017068;28;20032;-76
2022/01/10 03:26:18;;;;;;;0.40;0.40;;;;;;;9.96;100.00;100229.63;5042393;28;20045;-77
2022/01/10 03:28:43;;;;;;;0.40;0.40;;;;;;;10.02;100.00;100238.78;5033356;28;20080;-78
2022/01/10 03:31:09;;;;;;;0.40;0.40;;;;;;;10.05;100.00;100235.72;5031260;28;20410;-78
2022/01/10 03:33:35;;;;;;;0.47;0.47;;;;;;;10.06;100.00;100240.91;5045952;28;20091;-78
2022/01/10 03:36:01;;;;;;;0.40;0.40;;;;;;;10.08;100.00;100238.88;5052736;28;20033;-78
2022/01/10 03:38:26;;;;;;;0.40;0.40;;;;;;;10.06;100.00;100243.59;5019304;28;20095;-78
2022/01/10 03:40:52;;;;;;;0.30;0.30;;;;;;;10.12;100.00;100242.03;5045589;28;20104;-77
2022/01/10 03:43:18;;;;;;;0.40;0.40;;;;;;;10.12;100.00;100239.34;5046385;28;20045;-77
2022/01/10 03:45:44;;;;;;;0.40;0.40;;;;;;;10.05;100.00;100227.66;5027711;28;20483;-78
2022/01/10 03:48:10;;;;;;;0.50;0.50;;;;;;;10.01;100.00;100231.75;5031588;28;20236;-78
2022/01/10 03:50:36;;;;;;;0.40;0.40;;;;;;;9.91;100.00;100226.66;5045180;28;20053;-78
2022/01/10 03:53:02;;;;;;;0.50;0.50;;;;;;;9.87;100.00;100226.19;5029578;28;20036;-78
2022/01/10 03:55:28;;;;;;;0.40;0.40;;;;;;;9.92;100.00;100239.03;5027585;28;20037;-77
2022/01/10 03:57:53;;;;;;;0.40;0.40;;;;;;;9.94;100.00;100234.31;5018117;28;20501;-78
2022/01/10 04:00:19;;;;;;;0.50;0.50;;;;;;;10.02;100.00;100239.59;5013524;28;20391;-77
2022/01/10 04:02:53;;;;;;;0.50;0.50;;;;;;;10.04;100.00;100239.44;5031951;28;20418;-78
2022/01/10 04:05:18;;;;;;;0.50;0.50;;;;;;;10.08;100.00;100243.41;5046678;28;20037;-77
2022/01/10 04:07:45;;;;;;;0.40;0.40;;;;;;;10.11;100.00;100254.63;5030121;28;20417;-78
2022/01/10 04:10:11;;;;;;;0.40;0.40;;;;;;;10.12;100.00;100256.28;5048562;28;20509;-78
2022/01/10 04:12:36;;;;;;;0.40;0.40;;;;;;;10.11;100.00;100249.25;5043899;28;20045;-78
2022/01/10 04:15:03;;;;;;;0.40;0.40;;;;;;;10.15;100.00;100252.41;5029457;28;20560;-78
2022/01/10 04:17:29;;;;;;;0.40;0.40;;;;;;;10.07;100.00;100234.50;5013189;28;20029;-78
2022/01/10 04:19:55;;;;;;;0.40;0.40;;;;;;;10.19;100.00;100255.53;5052521;28;20390;-77
2022/01/10 04:22:20;;;;;;;1.50;1.40;;;;;;;10.19;100.00;100255.53;5029738;28;20487;-78
2022/01/10 04:24:47;;;;;;;0.40;0.40;;;;;;;10.22;100.00;100271.31;5031006;28;20432;-78
2022/01/10 04:27:12;;;;;;;0.60;0.60;;;;;;;10.21;100.00;100259.69;5033390;28;20032;-77
2022/01/10 04:29:38;;;;;;;0.50;0.50;;;;;;;10.22;100.00;100269.44;5046970;28;20135;-77
2022/01/10 04:32:04;;;;;;;0.40;0.40;;;;;;;10.26;100.00;100277.97;5026244;28;20114;-77
2022/01/10 04:34:30;;;;;;;0.40;0.40;;;;;;;10.25;100.00;100279.81;5044721;28;20072;-78
2022/01/10 04:36:56;;;;;;;0.40;0.40;;;;;;;10.22;100.00;100279.38;5029421;28;20033;-78
2022/01/10 04:39:22;;;;;;;0.40;0.40;;;;;;;10.22;100.00;100279.38;5031478;28;20029;-77
2022/01/10 04:41:47;;;;;;;0.40;0.40;;;;;;;10.20;100.00;100281.41;5016709;28;20475;-77
2022/01/10 04:44:13;;;;;;;0.40;0.40;;;;;;;10.18;100.00;100284.25;5050930;28;20033;-77
2022/01/10 04:46:39;;;;;;;0.40;0.40;;;;;;;10.18;100.00;100294.19;5011509;28;20506;-77
2022/01/10 04:49:06;;;;;;;0.40;0.40;;;;;;;10.17;100.00;100282.59;5019836;28;20450;-78
2022/01/10 04:51:32;;;;;;;0.43;0.43;;;;;;;10.16;100.00;100280.94;5031317;28;20036;-77
2022/01/10 04:53:58;;;;;;;0.50;0.50;;;;;;;10.15;100.00;100286.50;5031081;28;20029;-78
2022/01/10 04:56:23;;;;;;;0.40;0.40;;;;;;;10.14;100.00;100274.91;5025748;28;20044;-77
2022/01/10 04:58:50;;;;;;;0.40;0.40;;;;;;;10.12;100.00;100288.53;5015882;28;20041;-77
2022/01/10 05:01:17;;;;;;;0.40;0.40;;;;;;;10.10;100.00;100278.97;5006616;28;20521;-78
2022/01/10 05:03:43;;;;;;;0.38;0.38;;;;;;;10.08;100.00;100281.00;5029328;28;20499;-76
2022/01/10 05:06:08;;;;;;;0.50;0.50;;;;;;;10.05;100.00;100282.22;5023478;28;20073;-77
2022/01/10 05:08:34;;;;;;;0.70;0.70;;;;;;;10.05;100.00;100286.75;5015560;28;20024;-77
2022/01/10 05:11:00;;;;;;;0.45;0.45;;;;;;;10.02;100.00;100287.97;5017307;28;20387;-77
2022/01/10 05:13:26;;;;;;;0.40;0.40;;;;;;;10.01;100.00;100291.66;5049591;28;20387;-77
2022/01/10 05:15:52;;;;;;;0.57;0.57;;;;;;;9.93;100.00;100282.88;5046410;28;20055;-78
2022/01/10 05:18:20;;;;;;;0.50;0.50;;;;;;;10.00;100.00;100300.75;5049571;28;20041;-77
2022/01/10 05:20:46;;;;;;;0.50;0.50;;;;;;;10.03;100.00;100296.84;5032090;28;20179;-78
2022/01/10 05:23:12;;;;;;;0.45;0.45;;;;;;;10.04;100.00;100301.22;5046689;28;20124;-76
2022/01/10 05:25:40;;;;;;;0.40;0.40;;;;;;;10.02;100.00;100296.00;5051925;28;20133;-77
2022/01/10 05:28:10;;;;;;;0.40;0.40;;;;;;;10.02;100.00;100303.25;5017528;28;20132;-77
2022/01/10 05:30:37;;;;;;;0.50;0.50;;;;;;;10.04;100.00;100304.72;5015241;28;20091;-78
2022/01/10 05:33:04;;;;;;;0.50;0.50;;;;;;;10.03;100.00;100305.75;5054832;28;20139;-76
2022/01/10 05:35:30;;;;;;;0.40;0.40;;;;;;;10.04;100.00;100309.28;5024435;28;20037;-77
2022/01/10 05:37:55;;;;;;;0.30;0.30;;;;;;;9.99;100.00;100295.56;5030540;28;20541;-78
2022/01/10 05:40:21;;;;;;;0.50;0.50;;;;;;;10.01;100.00;100304.28;5027270;28;20029;-78
2022/01/10 05:42:47;;;;;;;0.40;0.40;;;;;;;9.98;100.00;100297.41;5029409;28;20041;-77
2022/01/10 05:45:12;;;;;;;0.52;0.50;;;;;;;10.02;100.00;100314.81;5043524;28;20049;-77
2022/01/10 05:47:43;;;;;;;0.40;0.40;;;;;;;9.98;100.00;100299.28;5044549;28;20058;-77
2022/01/10 05:50:11;;;;;;;0.40;0.40;;;;;;;9.93;100.00;100293.63;5032944;28;20037;-77
2022/01/10 05:52:38;;;;;;;0.40;0.40;;;;;;;9.93;100.00;100304.34;5011446;28;20074;-77
2022/01/10 05:55:04;;;;;;;0.45;0.45;;;;;;;9.99;100.00;100314.34;5044118;28;20415;-77
2022/01/10 05:57:30;;;;;;;0.40;0.40;;;;;;;9.98;100.00;100324.28;5024162;28;20054;-77
2022/01/10 05:59:56;;;;;;;0.40;0.40;;;;;;;9.99;100.00;100330.47;5032620;28;20163;-76
2022/01/10 06:02:21;;;;;;;0.35;0.35;;;;;;;10.01;100.00;100331.13;5045435;28;20036;-78
2022/01/10 06:04:47;;;;;;;0.40;0.40;;;;;;;10.00;100.00;100332.13;5025903;28;20073;-78
2022/01/10 06:07:13;;;;;;;0.40;0.40;;;;;;;9.99;100.00;100335.84;5043542;28;20068;-77
2022/01/10 06:09:39;;;;;;;0.50;0.50;;;;;;;9.98;100.00;100336.88;5023661;28;20438;-76
2022/01/10 06:12:05;;;;;;;0.38;0.38;;;;;;;9.99;100.00;100338.53;5005737;28;20037;-77
2022/01/10 06:14:31;;;;;;;0.40;0.40;;;;;;;9.97;100.00;100341.38;5030896;28;20041;-77
2022/01/10 06:16:56;;;;;;;0.50;0.50;;;;;;;9.97;100.00;100344.06;5034307;28;20452;-77
2022/01/10 06:19:24;;;;;;;0.40;0.40;;;;;;;10.00;100.00;100346.41;5028275;28;20040;-77
2022/01/10 06:21:51;;;;;;;0.50;0.50;;;;;;;10.02;100.00;100344.38;5043215;28;20064;-78
2022/01/10 06:24:16;;;;;;;2.78;0.68;;;;;;;10.04;100.00;100350.41;5008205;28;20291;-78
2022/01/10 06:26:42;;;;;;;0.55;0.55;;;;;;;10.03;100.00;100346.06;5047625;28;20429;-77
2022/01/10 06:29:07;;;;;;;0.40;0.40;;;;;;;10.05;100.00;100351.22;5044555;28;20474;-78
2022/01/10 06:31:35;;;;;;;0.50;0.50;;;;;;;10.04;100.00;100352.25;5017801;28;20548;-78
2022/01/10 06:34:01;;;;;;;0.35;0.35;;;;;;;10.01;100.00;100361.50;5044236;28;20037;-77
2022/01/10 06:36:27;;;;;;;0.40;0.40;;;;;;;10.00;100.00;100362.53;5044853;28;20029;-77
2022/01/10 06:38:52;;;;;;;0.40;0.40;;;;;;;10.00;100.00;100370.59;5027620;28;20467;-77
2022/01/10 06:41:18;;;;;;;0.50;0.50;;;;;;;10.02;100.00;100365.03;5042941;28;20025;-77
2022/01/10 06:43:43;;;;;;;0.50;0.50;;;;;;;10.02;100.00;100370.41;5045117;28;20045;-77
2022/01/10 06:46:09;;;;;;;0.40;0.40;;;;;;;9.94;100.00;100360.56;5013241;28;20037;-76
2022/01/10 06:48:35;;;;;;;0.40;0.40;;;;;;;9.99;100.00;100373.44;5011353;28;20033;-77
2022/01/10 06:51:00;;;;;;;0.40;0.40;;;;;;;10.00;100.00;100383.16;5031772;28;20467;-78
2022/01/10 06:53:26;;;;;;;0.65;0.60;;;;;;;9.97;100.00;100379.00;5026601;28;20029;-77
2022/01/10 06:55:52;;;;;;;0.40;0.40;;;;;;;9.98;100.00;100377.16;5010885;28;20052;-77
2022/01/10 06:58:20;;;;;;;0.50;0.50;;;;;;;9.97;100.00;100387.03;5011487;28;20044;-78
2022/01/10 07:00:46;;;;;;;0.40;0.40;;;;;;;9.96;100.00;100379.19;5006373;28;20208;-78
2022/01/10 07:03:11;;;;;;;0.45;0.45;;;;;;;9.96;100.00;100381.88;5011683;28;20546;-77
2022/01/10 07:05:37;;;;;;;0.50;0.50;;;;;;;9.95;100.00;100390.94;5011610;28;20048;-77
2022/01/10 07:08:03;;;;;;;0.50;0.50;;;;;;;9.93;100.00;100396.50;5018254;28;20044;-77
2022/01/10 07:10:29;;;;;;;0.40;0.40;;;;;;;9.93;100.00;100392.97;5036939;28;20079;-78
2022/01/10 07:12:55;;;;;;;0.45;0.45;;;;;;;9.84;100.00;100384.13;5020061;28;20479;-79
2022/01/10 07:15:21;;;;;;;0.40;0.40;;;;;;;9.87;100.00;100389.13;5026084;28;20033;-77
2022/01/10 07:17:47;;;;;;;0.40;0.40;;;;;;;9.84;100.00;100384.13;5018890;28;20964;-77
2022/01/10 07:20:12;;;;;;;0.50;0.50;;;;;;;9.91;100.00;100401.22;5017561;28;20490;-77
2022/01/10 07:22:38;;;;;;;0.40;0.40;;;;;;;9.92;100.00;100394.81;5002332;28;20069;-78
2022/01/10 07:25:04;;;;;;;0.50;0.50;;;;;;;9.90;100.00;100395.00;5032070;28;20479;-77
2022/01/10 07:27:30;;;;;;;0.40;0.40;;;;;;;9.94;100.00;100400.00;5023199;28;20049;-78
2022/01/10 07:29:56;;;;;;;0.50;0.50;;;;;;;9.91;100.00;100411.94;5023996;28;20033;-77
2022/01/10 07:32:21;;;;;;;0.40;0.40;;;;;;;9.93;100.00;100411.78;5021342;28;20383;-79
2022/01/10 07:34:47;;;;;;;0.50;0.50;;;;;;;9.89;100.00;100406.75;5041806;28;20048;-78
2022/01/10 07:37:15;;;;;;;0.47;0.47;;;;;;;9.87;100.00;100403.44;5036958;28;20028;-78
2022/01/10 07:39:41;;;;;;;0.50;0.50;;;;;;;9.89;100.00;100422.84;5038778;28;20499;-79
2022/01/10 07:42:07;;;;;;;0.40;0.40;;;;;;;9.87;100.00;100416.84;5025977;28;20033;-78
2022/01/10 07:44:34;;;;;;;0.40;0.40;;;;;;;9.84;100.00;100409.16;5033384;28;20059;-78
2022/01/10 07:47:00;;;;;;;0.50;0.50;;;;;;;9.90;100.00;100412.97;5009747;28;20041;-76
2022/01/10 07:49:26;;;;;;;0.50;0.50;;;;;;;9.89;100.00;100422.84;5039191;28;20030;-77
2022/01/10 07:51:51;;;;;;;0.75;0.50;;;;;;;9.89;100.00;100428.22;5035751;28;20115;-79
2022/01/10 07:54:17;;;;;;;0.40;0.40;;;;;;;9.87;100.00;100418.69;5015392;28;20123;-78
2022/01/10 07:56:43;;;;;;;0.50;0.50;;;;;;;9.86;100.00;100417.03;5022735;28;20045;-77
2022/01/10 07:59:09;;;;;;;0.40;0.40;;;;;;;9.84;100.00;100424.41;5015194;28;20040;-78
2022/01/10 08:01:35;;;;;;;0.45;0.45;;;;;;;9.81;100.00;100420.22;5044361;28;20029;-77
2022/01/10 08:04:00;;;;;;;0.40;0.40;;;;;;;9.79;100.00;100430.34;5024511;28;20556;-78
2022/01/10 08:06:26;;;;;;;0.40;0.40;;;;;;;9.82;100.00;100427.28;5036713;28;20475;-77
2022/01/10 08:08:52;;;;;;;0.40;0.40;;;;;;;9.82;100.00;100421.94;5032022;28;20096;-77
2022/01/10 08:11:17;;;;;;;0.40;0.40;;;;;;;9.77;100.00;100412.75;5037505;28;20459;-78
2022/01/10 08:13:43;;;;;;;0.40;0.40;;;;;;;9.81;100.00;100430.16;5034879;28;20029;-78
2022/01/10 08:16:09;;;;;;;0.40;0.40;;;;;;;9.86;100.00;100431.28;5044950;28;20036;-78
2022/01/10 08:18:35;;;;;;;0.40;0.40;;;;;;;9.84;100.00;100429.78;5036691;28;20036;-77
2022/01/10 08:21:01;;;;;;;0.88;0.88;;;;;;;9.79;100.00;100433.03;5014068;28;20095;-77
2022/01/10 08:23:28;;;;;;;0.40;0.40;;;;;;;9.78;100.00;100427.81;5036333;28;20072;-77
2022/01/10 08:25:54;;;;;;;0.50;0.50;;;;;;;9.76;100.00;100438.72;5029483;28;20039;-77
2022/01/10 08:28:19;;;;;;;0.50;0.50;;;;;;;9.78;100.00;100450.13;5014333;28;20033;-77
2022/01/10 08:30:45;;;;;;;0.50;0.50;;;;;;;9.81;100.00;100448.94;5026270;28;20109;-79
2022/01/10 08:33:10;;;;;;;0.40;0.40;;;;;;;9.81;100.00;100457.00;5048281;28;20032;-77
2022/01/10 08:35:36;;;;;;;0.50;0.50;;;;;;;9.83;100.00;100453.13;5016335;28;20037;-78
2022/01/10 08:38:02;;;;;;;0.50;0.50;;;;;;;9.82;100.00;100461.38;5014823;28;20552;-77
2022/01/10 08:40:28;;;;;;;0.68;0.65;;;;;;;9.77;100.00;100444.97;5051209;28;20048;-77
2022/01/10 08:42:54;;;;;;;0.40;0.40;;;;;;;9.82;100.00;100470.25;5033201;28;20382;-78
2022/01/10 08:45:19;;;;;;;0.50;0.50;;;;;;;9.82;100.00;100464.06;5034120;28;20087;-78
2022/01/10 08:47:46;;;;;;;0.50;0.50;;;;;;;9.81;100.00;100467.75;5041296;28;20025;-77
2022/01/10 08:50:12;;;;;;;1.17;0.55;;;;;;;9.83;100.00;100482.66;5047036;28;20386;-77
2022/01/10 08:52:40;;;;;;;0.40;0.40;;;;;;;9.82;100.00;100474.81;5032934;28;20037;-77
2022/01/10 08:55:08;;;;;;;0.55;0.55;;;;;;;9.82;100.00;100478.31;5026857;28;20032;-78
2022/01/10 08:57:36;;;;;;;0.43;0.43;;;;;;;9.84;100.00;100480.81;5029607;28;20036;-77
2022/01/10 09:00:06;;;;;;;0.40;0.40;;;;;;;9.81;100.00;100481.16;5015527;28;20065;-77
2022/01/10 09:02:32;;;;;;;0.50;0.50;;;;;;;9.82;100.00;100482.84;5017465;28;20032;-77
2022/01/10 09:05:00;;;;;;;0.40;0.40;;;;;;;9.83;100.00;100503.31;5010317;28;20082;-77
2022/01/10 09:07:26;;;;;;;0.70;0.70;;;;;;;9.84;100.00;100496.91;5011495;28;20044;-77
2022/01/10 09:09:52;;;;;;;0.57;0.57;;;;;;;9.86;100.00;100509.16;5043406;28;20029;-79
2022/01/10 09:12:18;;;;;;;0.40;0.40;;;;;;;9.89;100.00;100499.91;5040999;28;20111;-78
2022/01/10 09:14:43;;;;;;;0.40;0.40;;;;;;;9.84;100.00;100494.22;5052917;28;20024;-79
2022/01/10 09:17:09;;;;;;;0.50;0.50;;;;;;;9.89;100.00;100506.09;5059923;28;20040;-79
2022/01/10 09:19:35;;;;;;;0.50;0.50;;;;;;;9.87;100.00;100505.47;5025556;28;20126;-80
2022/01/10 09:22:00;;;;;;;0.50;0.50;;;;;;;9.97;100.00;100515.97;5033552;28;20538;-79
2022/01/10 09:24:27;;;;;;;0.40;0.40;;;;;;;9.99;100.00;100515.81;5051344;28;20028;-79
2022/01/10 09:26:52;;;;;;;1.95;1.85;;;;;;;9.97;100.00;100518.66;5016664;28;20131;-78
2022/01/10 09:29:18;;;;;;;0.80;0.80;;;;;;;10.01;100.00;100527.22;5049218;28;20159;-79
2022/01/10 09:31:45;;;;;;;0.50;0.50;;;;;;;9.94;100.00;100508.28;5032640;28;20494;-78
2022/01/10 09:34:11;;;;;;;0.40;0.40;;;;;;;10.02;100.00;100524.34;5031384;28;20033;-79
2022/01/10 09:36:37;;;;;;;0.50;0.50;;;;;;;10.05;100.00;100531.19;5015518;28;20036;-80
2022/01/10 09:39:04;;;;;;;0.50;0.50;;;;;;;10.07;100.00;100527.31;5043532;28;20032;-79
2022/01/10 09:41:30;;;;;;;0.40;0.40;;;;;;;10.10;100.00;100526.97;5049832;28;20391;-78
2022/01/10 09:44:00;;;;;;;0.47;0.47;;;;;;;10.11;100.00;100533.19;5034060;28;20033;-78
2022/01/10 09:46:27;;;;;;;0.40;0.40;;;;;;;10.09;100.00;100519.94;5016364;28;20041;-78
2022/01/10 09:48:53;;;;;;;0.50;0.50;;;;;;;10.21;100.00;100546.38;5017981;28;20040;-78
2022/01/10 09:51:22;;;;;;;0.50;0.50;;;;;;;10.24;100.00;100548.69;5067112;28;20087;-78
2022/01/10 09:53:49;;;;;;;0.45;0.45;;;;;;;10.27;100.00;100554.59;5050224;28;20037;-77
2022/01/10 09:56:16;;;;;;;0.40;0.40;;;;;;;10.26;100.00;100555.56;5048979;28;20045;-79
2022/01/10 09:58:43;;;;;;;0.40;0.40;;;;;;;10.32;100.00;100554.91;5033112;28;20418;-77
2022/01/10 10:01:13;;;;;;;0.40;0.40;;;;;;;10.37;100.00;100567.78;5032756;28;20426;-77
2022/01/10 10:03:43;;;;;;;0.40;0.40;;;;;;;10.32;100.00;100554.91;5033290;28;20071;-77
2022/01/10 10:06:09;;;;;;;0.47;0.47;;;;;;;10.34;100.00;100554.72;5050606;28;20024;-78
2022/01/10 10:08:38;;;;;;;0.50;0.50;;;;;;;10.24;100.00;100548.69;5049996;28;20044;-77
2022/01/10 10:11:06;;;;;;;0.45;0.45;;;;;;;10.38;100.00;100572.16;5042454;28;20033;-78
2022/01/10 10:13:40;;;;;;;0.50;0.50;;;;;;;10.37;100.00;100575.84;5041646;28;20459;-78
2022/01/10 10:16:13;;;;;;;0.47;0.47;;;;;;;10.39;100.00;100568.44;5041972;28;20040;-78
2022/01/10 10:18:43;;;;;;;0.40;0.40;;;;;;;10.38;100.00;100571.34;5013237;28;20039;-78
2022/01/10 10:21:14;;;;;;;0.40;0.40;;;;;;;10.39;100.00;100565.75;5050030;28;20029;-79
2022/01/10 10:23:41;;;;;;;0.50;0.50;;;;;;;10.36;100.00;100565.28;5056787;28;20029;-78
2022/01/10 10:26:07;;;;;;;0.50;0.50;;;;;;;10.39;100.00;100571.13;5028464;28;20116;-80
2022/01/10 10:28:35;;;;;;;0.50;0.50;;;;;;;10.50;100.00;100586.00;5027690;28;20037;-79
2022/01/10 10:31:02;;;;;;;0.50;0.50;;;;;;;10.54;100.00;100572.03;5029309;28;20471;-78
2022/01/10 10:33:27;;;;;;;0.47;0.47;;;;;;;10.59;100.00;100579.56;5014218;28;20082;-79
2022/01/10 10:35:56;;;;;;;0.50;0.50;;;;;;;10.60;100.00;100583.91;5045458;28;20535;-78
2022/01/10 10:38:24;;;;;;;0.50;0.50;;;;;;;10.60;100.00;100577.72;5044280;28;20029;-78
2022/01/10 10:40:49;;;;;;;0.40;0.40;;;;;;;10.69;100.00;100587.38;5013359;28;20063;-79
2022/01/10 10:43:15;;;;;;;0.50;0.50;;;;;;;10.70;100.00;100594.44;5047524;28;20466;-77
2022/01/10 10:45:43;;;;;;;0.50;0.50;;;;;;;10.64;100.00;100597.81;5035263;28;20039;-76
2022/01/10 10:48:10;;;;;;;0.50;0.50;;;;;;;10.64;100.00;100609.44;5042274;28;20033;-77
2022/01/10 10:50:44;;;;;;;0.40;0.40;;;;;;;10.65;100.00;100604.88;5043291;28;20040;-78
2022/01/10 10:53:14;;;;;;;0.40;0.40;;;;;;;10.61;100.00;100600.88;5041958;28;20028;-76
2022/01/10 10:55:44;;;;;;;0.38;0.38;;;;;;;10.63;100.00;100610.44;5037166;28;20126;-77
2022/01/10 10:58:11;;;;;;;0.60;0.60;;;;;;;10.63;100.00;100606.91;5042941;28;20029;-78
2022/01/10 11:00:37;;;;;;;0.43;0.43;;;;;;;10.68;100.00;100620.66;5014712;28;20191;-77
2022/01/10 11:03:03;;;;;;;0.50;0.50;;;;;;;10.67;100.00;100609.06;5048346;28;20506;-77
2022/01/10 11:05:35;;;;;;;0.50;0.50;;;;;;;10.67;100.00;100616.31;5041963;28;20466;-77
2022/01/10 11:08:04;;;;;;;0.50;0.50;;;;;;;10.65;100.00;100624.53;5014421;28;20098;-77
2022/01/10 11:10:32;;;;;;;0.50;0.50;;;;;;;10.66;100.00;100622.69;5008124;28;20065;-77
2022/01/10 11:13:01;;;;;;;0.47;0.47;;;;;;;10.65;100.00;100621.03;5047534;28;20033;-78
2022/01/10 11:15:27;;;;;;;0.50;0.50;;;;;;;10.68;100.00;100631.41;5046218;28;20039;-79
2022/01/10 11:17:56;;;;;;;0.50;0.50;;;;;;;10.60;100.00;100624.25;5035260;28;20036;-78
2022/01/10 11:20:24;;;;;;;0.40;0.40;;;;;;;10.60;100.00;100626.09;5050060;28;20048;-79
2022/01/10 11:22:54;;;;;;;0.40;0.40;;;;;;;10.51;100.00;100619.97;5048373;28;20501;-78
2022/01/10 11:25:37;;;;;;;0.50;0.50;;;;;;;10.50;100.00;100626.31;5051378;28;20067;-78